createdAt,value
2023-01-31T00:04:57.722Z,98702.02
2023-01-31T00:07:24.919Z,98675.29
2023-01-31T00:09:52.132Z,98674.67
2023-01-31T00:12:18.660Z,98672.46
2023-01-31T00:14:45.456Z,98671.14
2023-01-31T00:17:12.396Z,98671.61
2023-01-31T00:19:39.568Z,98677.58
2023-01-31T00:22:06.553Z,98679.52
2023-01-31T00:24:34.866Z,98678.52
2023-01-31T00:27:01.647Z,98679.13
2023-01-31T00:29:28.549Z,98681.10
2023-01-31T00:31:55.747Z,98679.95
2023-01-31T00:34:22.576Z,98677.77
2023-01-31T00:36:49.668Z,98677.12
2023-01-31T00:39:16.297Z,98679.06
2023-01-31T00:41:45.217Z,98679.81
2023-01-31T00:44:13.177Z,98674.33
2023-01-31T00:46:40.100Z,98679.58
2023-01-31T00:49:06.999Z,98684.31
2023-01-31T00:51:34.500Z,98687.48
2023-01-31T00:54:01.902Z,98687.29
2023-01-31T00:56:28.770Z,98691.80
2023-01-31T00:58:56.181Z,98689.08
2023-01-31T01:01:25.725Z,98678.27
2023-01-31T01:03:52.752Z,98671.16
2023-01-31T01:06:23.770Z,98669.71
2023-01-31T01:16:58.476Z,98668.63
2023-01-31T01:19:26.134Z,98661.02
2023-01-31T01:21:55.019Z,98664.27
2023-01-31T01:24:21.703Z,98667.51
2023-01-31T01:26:48.493Z,98673.58
2023-01-31T01:29:15.448Z,98674.06
2023-01-31T01:31:43.349Z,98672.14
2023-01-31T01:34:14.777Z,98672.70
2023-01-31T01:36:42.206Z,98674.63
2023-01-31T01:39:10.157Z,98671.48
2023-01-31T01:41:37.478Z,98677.65
2023-01-31T01:44:24.879Z,98678.88
2023-01-31T01:46:51.727Z,98676.02
2023-01-31T01:49:27.925Z,98675.77
2023-01-31T01:51:55.136Z,98672.34
2023-01-31T01:54:24.581Z,98669.66
2023-01-31T01:56:53.754Z,98672.46
2023-01-31T16:04:24.463Z,99054.36
2023-01-31T16:06:54.237Z,99039.43
2023-01-31T16:09:26.496Z,99040.05
2023-01-31T16:11:54.295Z,99041.45
2023-01-31T16:14:22.497Z,99043.77
2023-01-31T16:16:52.290Z,99046.30
2023-01-31T16:19:32.925Z,99042.72
2023-01-31T16:21:59.883Z,99043.23
2023-01-31T16:24:26.831Z,99049.96
2023-01-31T16:27:08.756Z,99047.04
2023-01-31T16:29:39.715Z,99049.42
2023-01-31T16:32:27.659Z,99050.05
2023-01-31T16:35:06.352Z,99048.23
2023-01-31T16:37:36.733Z,99046.56
2023-01-31T16:40:28.592Z,99051.91
2023-01-31T16:43:23.892Z,99052.49
2023-01-31T16:45:56.007Z,99052.27
2023-01-31T16:48:24.566Z,99053.86
2023-01-31T16:50:52.852Z,99049.63
2023-01-31T16:53:32.557Z,99052.26
2023-01-31T16:56:19.906Z,99054.02
2023-01-31T16:58:56.581Z,99053.86
2023-01-31T17:01:31.203Z,99058.96
2023-01-31T17:04:18.271Z,99056.95
2023-01-31T17:06:49.100Z,99059.89
2023-01-31T17:09:21.014Z,99061.26
2023-01-31T17:11:47.943Z,99060.94
2023-01-31T17:14:15.620Z,99058.85
2023-01-31T17:16:42.369Z,99061.14
2023-01-31T17:19:10.867Z,99061.11
2023-01-31T17:21:40.477Z,99060.06
2023-01-31T17:24:14.910Z,99062.38
2023-01-31T17:26:41.688Z,99060.39
2023-01-31T17:29:08.574Z,99064.03
2023-01-31T17:31:35.297Z,99062.20
2023-01-31T17:34:03.181Z,99063.38
2023-01-31T17:36:30.275Z,99062.16
2023-01-31T17:38:57.687Z,99068.71
2023-01-31T17:41:27.200Z,99069.60
2023-01-31T17:43:53.934Z,99069.11
2023-01-31T17:46:20.934Z,99071.45
2023-01-31T17:48:47.809Z,99073.09
2023-01-31T17:51:14.984Z,99073.12
2023-01-31T17:53:49.540Z,99072.59
2023-01-31T17:56:17.715Z,99077.90
2023-01-31T17:58:44.629Z,99077.88
2023-01-31T18:01:13.259Z,99079.31
2023-01-31T18:03:40.834Z,99081.97
2023-01-31T18:06:08.138Z,99082.19
2023-01-31T18:08:35.153Z,99085.89
2023-01-31T18:11:06.191Z,99081.50
2023-01-31T18:13:35.225Z,99082.95
2023-01-31T18:16:07.357Z,99082.41
2023-01-31T18:18:37.757Z,99080.77
2023-01-31T18:21:05.093Z,99080.02
2023-01-31T18:23:32.211Z,99082.95
2023-01-31T18:25:59.695Z,99083.65
2023-01-31T18:28:26.619Z,99080.86
2023-01-31T18:30:53.332Z,99085.30
2023-01-31T18:33:20.315Z,99083.23
2023-01-31T18:35:58.006Z,99079.71
2023-01-31T18:38:25.877Z,99082.02
2023-01-31T18:40:52.820Z,99085.17
2023-01-31T18:43:20.316Z,99091.13
2023-01-31T18:45:47.784Z,99090.02
2023-01-31T18:48:14.474Z,99090.83
2023-01-31T18:50:41.345Z,99088.52
2023-01-31T18:53:08.027Z,99088.89
2023-01-31T18:55:35.014Z,99093.48
2023-01-31T18:58:01.750Z,99092.27
2023-01-31T19:00:29.018Z,99090.73
2023-01-31T19:02:56.200Z,99093.64
2023-01-31T19:05:23.745Z,99094.01
2023-01-31T19:07:51.278Z,99093.27
2023-01-31T19:10:18.634Z,99096.61
2023-01-31T19:12:45.549Z,99096.06
2023-01-31T19:15:13.113Z,99099.21
2023-01-31T19:17:40.103Z,99098.86
2023-01-31T19:20:08.002Z,99097.69
2023-01-31T19:22:35.745Z,99099.35
2023-01-31T19:25:04.921Z,99096.04
2023-01-31T19:27:33.440Z,99096.45
2023-01-31T19:30:00.659Z,99100.90
2023-01-31T19:32:28.889Z,99104.93
2023-01-31T19:34:55.534Z,99099.57
